sensor_id;sensor_type;location;lat;lon;timestamp;temperature;humidity
336;DHT22;156;48.738;9.228;2023-07-22T00:01:56;14.40;99.90
336;DHT22;156;48.738;9.228;2023-07-22T00:04:23;14.40;99.90
336;DHT22;156;48.738;9.228;2023-07-22T00:06:50;14.40;99.90
336;DHT22;156;48.738;9.228;2023-07-22T00:09:18;14.30;99.90
336;DHT22;156;48.738;9.228;2023-07-22T00:11:45;14.30;99.90
336;DHT22;156;48.738;9.228;2023-07-22T00:14:12;14.40;99.90
336;DHT22;156;48.738;9.228;2023-07-22T00:16:39;14.50;99.90
336;DHT22;156;48.738;9.228;2023-07-22T00:19:06;14.50;99.90
336;DHT22;156;48.738;9.228;2023-07-22T00:21:33;14.50;99.90
336;DHT22;156;48.738;9.228;2023-07-22T00:24:00;14.50;99.90
336;DHT22;156;48.738;9.228;2023-07-22T00:26:29;14.40;99.90
336;DHT22;156;48.738;9.228;2023-07-22T00:28:59;14.60;99.90
336;DHT22;156;48.738;9.228;2023-07-22T00:31:26;14.70;99.90
336;DHT22;156;48.738;9.228;2023-07-22T00:33:53;14.80;99.90
336;DHT22;156;48.738;9.228;2023-07-22T00:36:20;14.90;99.90
336;DHT22;156;48.738;9.228;2023-07-22T00:38:47;14.80;99.90
336;DHT22;156;48.738;9.228;2023-07-22T00:41:14;14.80;99.90
336;DHT22;156;48.738;9.228;2023-07-22T00:43:44;14.80;98.30
336;DHT22;156;48.738;9.228;2023-07-22T00:46:11;14.80;99.00
336;DHT22;156;48.738;9.228;2023-07-22T00:48:41;14.80;98.80
336;DHT22;156;48.738;9.228;2023-07-22T00:51:14;14.90;96.30
336;DHT22;156;48.738;9.228;2023-07-22T00:53:41;14.90;96.20
336;DHT22;156;48.738;9.228;2023-07-22T00:56:08;15.00;95.00
336;DHT22;156;48.738;9.228;2023-07-22T00:58:35;14.90;95.80
336;DHT22;156;48.738;9.228;2023-07-22T01:01:11;14.90;95.60
336;DHT22;156;48.738;9.228;2023-07-22T01:03:46;14.70;99.60
336;DHT22;156;48.738;9.228;2023-07-22T01:06:16;14.70;99.70
336;DHT22;156;48.738;9.228;2023-07-22T01:08:45;14.60;99.90
336;DHT22;156;48.738;9.228;2023-07-22T01:11:14;14.60;99.90
336;DHT22;156;48.738;9.228;2023-07-22T01:13:41;14.70;99.90
336;DHT22;156;48.738;9.228;2023-07-22T01:16:09;14.70;99.90
336;DHT22;156;48.738;9.228;2023-07-22T01:18:38;14.70;99.90
336;DHT22;156;48.738;9.228;2023-07-22T01:21:06;14.60;99.90
336;DHT22;156;48.738;9.228;2023-07-22T01:23:35;14.60;99.90
336;DHT22;156;48.738;9.228;2023-07-22T01:26:03;14.60;99.90
336;DHT22;156;48.738;9.228;2023-07-22T01:28:30;14.60;99.90
336;DHT22;156;48.738;9.228;2023-07-22T01:30:56;14.60;99.90
336;DHT22;156;48.738;9.228;2023-07-22T01:33:23;14.50;99.90
336;DHT22;156;48.738;9.228;2023-07-22T01:35:55;14.50;99.90
336;DHT22;156;48.738;9.228;2023-07-22T01:38:22;14.40;99.90
336;DHT22;156;48.738;9.228;2023-07-22T01:40:51;14.40;99.90
336;DHT22;156;48.738;9.228;2023-07-22T01:43:18;14.40;99.90
336;DHT22;156;48.738;9.228;2023-07-22T01:45:45;14.40;99.90
336;DHT22;156;48.738;9.228;2023-07-22T01:48:12;14.40;99.90
336;DHT22;156;48.738;9.228;2023-07-22T01:50:39;14.40;99.90
336;DHT22;156;48.738;9.228;2023-07-22T01:53:06;14.30;99.90
336;DHT22;156;48.738;9.228;2023-07-22T01:55:33;14.30;99.90
336;DHT22;156;48.738;9.228;2023-07-22T01:58:02;14.30;99.90
336;DHT22;156;48.738;9.228;2023-07-22T02:00:32;14.20;99.90
336;DHT22;156;48.738;9.228;2023-07-22T02:03:02;14.20;99.90
336;DHT22;156;48.738;9.228;2023-07-22T02:05:29;14.20;99.90
336;DHT22;156;48.738;9.228;2023-07-22T02:07:57;14.20;99.90
336;DHT22;156;48.738;9.228;2023-07-22T02:10:24;14.10;99.90
336;DHT22;156;48.738;9.228;2023-07-22T02:12:51;14.10;99.90
336;DHT22;156;48.738;9.228;2023-07-22T02:15:20;14.20;99.90
336;DHT22;156;48.738;9.228;2023-07-22T02:17:47;14.10;99.90
336;DHT22;156;48.738;9.228;2023-07-22T02:20:15;14.10;99.90
336;DHT22;156;48.738;9.228;2023-07-22T02:22:42;14.10;99.90
336;DHT22;156;48.738;9.228;2023-07-22T02:25:11;14.10;99.90
336;DHT22;156;48.738;9.228;2023-07-22T02:27:46;14.10;99.90
336;DHT22;156;48.738;9.228;2023-07-22T02:30:17;14.10;99.90
336;DHT22;156;48.738;9.228;2023-07-22T02:32:48;14.00;99.90
336;DHT22;156;48.738;9.228;2023-07-22T02:35:18;14.00;99.90
336;DHT22;156;48.738;9.228;2023-07-22T02:37:45;13.90;99.90
336;DHT22;156;48.738;9.228;2023-07-22T02:40:15;13.80;99.90
336;DHT22;156;48.738;9.228;2023-07-22T02:42:44;13.70;99.90
336;DHT22;156;48.738;9.228;2023-07-22T02:45:20;13.70;99.90
336;DHT22;156;48.738;9.228;2023-07-22T02:47:50;13.60;99.90
336;DHT22;156;48.738;9.228;2023-07-22T02:50:17;13.70;99.90
336;DHT22;156;48.738;9.228;2023-07-22T02:52:52;13.70;99.90
336;DHT22;156;48.738;9.228;2023-07-22T02:55:25;14.00;99.90
336;DHT22;156;48.738;9.228;2023-07-22T02:58:10;13.70;99.90
336;DHT22;156;48.738;9.228;2023-07-22T03:00:46;13.10;99.90
336;DHT22;156;48.738;9.228;2023-07-22T03:03:29;13.70;99.90
336;DHT22;156;48.738;9.228;2023-07-22T03:06:03;13.60;99.90
336;DHT22;156;48.738;9.228;2023-07-22T03:08:43;13.20;99.90
336;DHT22;156;48.738;9.228;2023-07-22T03:11:10;13.60;99.90
336;DHT22;156;48.738;9.228;2023-07-22T03:13:38;13.50;99.90
336;DHT22;156;48.738;9.228;2023-07-22T03:16:12;13.50;99.90
336;DHT22;156;48.738;9.228;2023-07-22T03:18:42;13.40;99.90
336;DHT22;156;48.738;9.228;2023-07-22T03:21:12;13.50;99.90
336;DHT22;156;48.738;9.228;2023-07-22T03:23:39;13.50;99.90
336;DHT22;156;48.738;9.228;2023-07-22T03:26:06;13.50;99.90
336;DHT22;156;48.738;9.228;2023-07-22T03:28:33;13.40;99.90
336;DHT22;156;48.738;9.228;2023-07-22T03:31:03;13.40;99.90
336;DHT22;156;48.738;9.228;2023-07-22T03:33:31;13.40;99.90
336;DHT22;156;48.738;9.228;2023-07-22T03:35:59;13.40;99.90
336;DHT22;156;48.738;9.228;2023-07-22T03:38:26;13.40;99.90
336;DHT22;156;48.738;9.228;2023-07-22T03:40:53;13.40;99.90
336;DHT22;156;48.738;9.228;2023-07-22T03:43:23;13.50;99.90
336;DHT22;156;48.738;9.228;2023-07-22T03:45:50;13.50;99.90
336;DHT22;156;48.738;9.228;2023-07-22T03:48:17;13.50;99.90
336;DHT22;156;48.738;9.228;2023-07-22T03:50:45;13.50;99.90
336;DHT22;156;48.738;9.228;2023-07-22T03:53:13;13.40;99.90
336;DHT22;156;48.738;9.228;2023-07-22T03:55:40;13.40;99.90
336;DHT22;156;48.738;9.228;2023-07-22T03:58:07;13.40;99.90
336;DHT22;156;48.738;9.228;2023-07-22T04:00:34;13.30;99.90
336;DHT22;156;48.738;9.228;2023-07-22T04:03:01;13.30;99.90
336;DHT22;156;48.738;9.228;2023-07-22T04:05:28;13.40;99.90
336;DHT22;156;48.738;9.228;2023-07-22T04:07:55;13.40;99.90
336;DHT22;156;48.738;9.228;2023-07-22T04:10:24;13.30;99.90
336;DHT22;156;48.738;9.228;2023-07-22T04:12:51;13.30;99.90
336;DHT22;156;48.738;9.228;2023-07-22T04:15:18;13.30;99.90
336;DHT22;156;48.738;9.228;2023-07-22T04:17:44;13.30;99.90
336;DHT22;156;48.738;9.228;2023-07-22T04:20:12;13.30;99.90
336;DHT22;156;48.738;9.228;2023-07-22T04:22:39;13.30;99.90
336;DHT22;156;48.738;9.228;2023-07-22T04:25:07;13.30;99.90
336;DHT22;156;48.738;9.228;2023-07-22T04:27:35;13.30;99.90
336;DHT22;156;48.738;9.228;2023-07-22T04:30:03;13.20;99.90
336;DHT22;156;48.738;9.228;2023-07-22T04:32:30;13.20;99.90
336;DHT22;156;48.738;9.228;2023-07-22T04:34:57;13.20;99.90
336;DHT22;156;48.738;9.228;2023-07-22T04:37:24;13.30;99.90
336;DHT22;156;48.738;9.228;2023-07-22T04:39:50;13.30;99.90
336;DHT22;156;48.738;9.228;2023-07-22T04:42:17;13.30;99.90
336;DHT22;156;48.738;9.228;2023-07-22T04:44:46;13.30;99.90
336;DHT22;156;48.738;9.228;2023-07-22T04:47:14;13.30;99.90
336;DHT22;156;48.738;9.228;2023-07-22T04:49:41;13.30;99.90
336;DHT22;156;48.738;9.228;2023-07-22T04:52:08;13.20;99.90
336;DHT22;156;48.738;9.228;2023-07-22T04:54:35;13.30;99.90
336;DHT22;156;48.738;9.228;2023-07-22T04:57:02;13.30;99.90
336;DHT22;156;48.738;9.228;2023-07-22T04:59:31;13.30;99.90
336;DHT22;156;48.738;9.228;2023-07-22T05:02:00;13.30;99.90
336;DHT22;156;48.738;9.228;2023-07-22T05:04:26;13.30;99.90
336;DHT22;156;48.738;9.228;2023-07-22T05:06:53;13.40;99.90
336;DHT22;156;48.738;9.228;2023-07-22T05:09:23;13.40;99.90
336;DHT22;156;48.738;9.228;2023-07-22T05:11:53;13.00;99.90
336;DHT22;156;48.738;9.228;2023-07-22T05:14:20;13.60;99.90
336;DHT22;156;48.738;9.228;2023-07-22T05:16:49;13.60;99.90
336;DHT22;156;48.738;9.228;2023-07-22T05:19:17;13.70;99.90
336;DHT22;156;48.738;9.228;2023-07-22T05:21:46;13.80;99.90
336;DHT22;156;48.738;9.228;2023-07-22T05:24:13;13.80;99.90
336;DHT22;156;48.738;9.228;2023-07-22T05:26:40;13.90;99.90
336;DHT22;156;48.738;9.228;2023-07-22T05:29:06;13.90;99.90
336;DHT22;156;48.738;9.228;2023-07-22T05:31:33;13.80;99.90
336;DHT22;156;48.738;9.228;2023-07-22T05:34:02;13.90;99.90
336;DHT22;156;48.738;9.228;2023-07-22T05:36:33;13.90;99.90
336;DHT22;156;48.738;9.228;2023-07-22T05:39:00;13.90;99.90
336;DHT22;156;48.738;9.228;2023-07-22T05:41:27;14.00;99.90
336;DHT22;156;48.738;9.228;2023-07-22T05:43:54;14.10;99.90
336;DHT22;156;48.738;9.228;2023-07-22T05:46:21;14.10;99.90
336;DHT22;156;48.738;9.228;2023-07-22T05:48:48;14.10;99.90
336;DHT22;156;48.738;9.228;2023-07-22T05:51:15;14.10;99.90
336;DHT22;156;48.738;9.228;2023-07-22T05:53:43;14.00;99.90
336;DHT22;156;48.738;9.228;2023-07-22T05:56:10;14.00;99.90
336;DHT22;156;48.738;9.228;2023-07-22T05:58:37;14.00;99.90
336;DHT22;156;48.738;9.228;2023-07-22T06:01:05;14.00;99.90
336;DHT22;156;48.738;9.228;2023-07-22T06:03:31;14.00;99.90
336;DHT22;156;48.738;9.228;2023-07-22T06:05:58;14.10;99.90
336;DHT22;156;48.738;9.228;2023-07-22T06:08:25;14.10;99.90
336;DHT22;156;48.738;9.228;2023-07-22T06:10:54;14.20;99.90
336;DHT22;156;48.738;9.228;2023-07-22T06:13:20;14.30;99.90
336;DHT22;156;48.738;9.228;2023-07-22T06:15:47;14.40;99.90
336;DHT22;156;48.738;9.228;2023-07-22T06:18:16;14.50;99.90
336;DHT22;156;48.738;9.228;2023-07-22T06:20:43;14.70;99.90
336;DHT22;156;48.738;9.228;2023-07-22T06:23:10;14.80;99.90
336;DHT22;156;48.738;9.228;2023-07-22T06:25:37;14.90;99.90
336;DHT22;156;48.738;9.228;2023-07-22T06:28:06;15.00;99.90
336;DHT22;156;48.738;9.228;2023-07-22T06:30:33;15.10;99.90
336;DHT22;156;48.738;9.228;2023-07-22T06:33:01;15.20;99.90
336;DHT22;156;48.738;9.228;2023-07-22T06:35:28;15.30;99.90
336;DHT22;156;48.738;9.228;2023-07-22T06:37:55;15.50;98.60
336;DHT22;156;48.738;9.228;2023-07-22T06:40:23;15.60;95.80
336;DHT22;156;48.738;9.228;2023-07-22T06:42:50;15.70;95.60
336;DHT22;156;48.738;9.228;2023-07-22T06:45:19;15.90;92.70
336;DHT22;156;48.738;9.228;2023-07-22T06:47:47;16.00;90.20
336;DHT22;156;48.738;9.228;2023-07-22T06:50:14;16.10;86.50
336;DHT22;156;48.738;9.228;2023-07-22T06:52:43;16.20;80.20
336;DHT22;156;48.738;9.228;2023-07-22T06:55:10;16.30;77.50
336;DHT22;156;48.738;9.228;2023-07-22T06:57:37;16.50;77.60
336;DHT22;156;48.738;9.228;2023-07-22T07:00:05;16.60;68.30
336;DHT22;156;48.738;9.228;2023-07-22T07:02:34;16.70;63.20
336;DHT22;156;48.738;9.228;2023-07-22T07:05:01;16.80;61.70
336;DHT22;156;48.738;9.228;2023-07-22T07:07:28;17.00;58.30
336;DHT22;156;48.738;9.228;2023-07-22T07:09:55;17.10;49.30
336;DHT22;156;48.738;9.228;2023-07-22T07:12:24;17.20;39.90
336;DHT22;156;48.738;9.228;2023-07-22T07:14:51;17.30;32.80
336;DHT22;156;48.738;9.228;2023-07-22T07:17:19;17.40;24.80
336;DHT22;156;48.738;9.228;2023-07-22T07:19:48;17.50;27.50
336;DHT22;156;48.738;9.228;2023-07-22T07:22:15;17.70;16.40
336;DHT22;156;48.738;9.228;2023-07-22T07:24:42;17.70;10.50
336;DHT22;156;48.738;9.228;2023-07-22T07:27:08;17.80;1.00
336;DHT22;156;48.738;9.228;2023-07-22T07:29:35;17.90;1.00
336;DHT22;156;48.738;9.228;2023-07-22T07:32:03;18.10;1.00
336;DHT22;156;48.738;9.228;2023-07-22T07:34:30;18.20;1.00
336;DHT22;156;48.738;9.228;2023-07-22T07:36:58;18.20;1.00
336;DHT22;156;48.738;9.228;2023-07-22T07:39:27;18.30;1.00
336;DHT22;156;48.738;9.228;2023-07-22T07:41:54;18.40;1.00
336;DHT22;156;48.738;9.228;2023-07-22T07:44:21;18.50;1.00
336;DHT22;156;48.738;9.228;2023-07-22T07:46:50;18.60;1.00
336;DHT22;156;48.738;9.228;2023-07-22T07:49:20;18.60;1.00
336;DHT22;156;48.738;9.228;2023-07-22T07:51:47;18.80;1.00
336;DHT22;156;48.738;9.228;2023-07-22T07:54:15;19.00;1.00
336;DHT22;156;48.738;9.228;2023-07-22T07:56:42;19.20;1.00
336;DHT22;156;48.738;9.228;2023-07-22T07:59:09;19.20;1.00
336;DHT22;156;48.738;9.228;2023-07-22T08:01:36;19.30;1.00
336;DHT22;156;48.738;9.228;2023-07-22T08:04:07;19.40;1.00
336;DHT22;156;48.738;9.228;2023-07-22T08:06:34;19.50;1.00
336;DHT22;156;48.738;9.228;2023-07-22T08:09:03;19.50;1.00
336;DHT22;156;48.738;9.228;2023-07-22T08:11:32;19.60;1.00
336;DHT22;156;48.738;9.228;2023-07-22T08:13:59;19.80;1.00
336;DHT22;156;48.738;9.228;2023-07-22T08:16:26;19.80;1.00
336;DHT22;156;48.738;9.228;2023-07-22T08:18:53;19.70;1.00
336;DHT22;156;48.738;9.228;2023-07-22T08:21:20;19.90;1.00
336;DHT22;156;48.738;9.228;2023-07-22T08:23:47;19.90;1.00
336;DHT22;156;48.738;9.228;2023-07-22T08:26:17;20.00;1.00
336;DHT22;156;48.738;9.228;2023-07-22T08:28:48;20.10;1.00
336;DHT22;156;48.738;9.228;2023-07-22T08:31:14;20.20;1.00
336;DHT22;156;48.738;9.228;2023-07-22T08:33:41;20.30;1.00
336;DHT22;156;48.738;9.228;2023-07-22T08:36:09;20.40;1.00
336;DHT22;156;48.738;9.228;2023-07-22T08:38:41;20.30;1.00
336;DHT22;156;48.738;9.228;2023-07-22T08:41:09;20.20;1.00
336;DHT22;156;48.738;9.228;2023-07-22T08:43:39;20.30;1.00
336;DHT22;156;48.738;9.228;2023-07-22T08:46:09;20.40;1.00
336;DHT22;156;48.738;9.228;2023-07-22T08:48:41;20.50;1.00
336;DHT22;156;48.738;9.228;2023-07-22T08:51:12;20.40;1.00
336;DHT22;156;48.738;9.228;2023-07-22T08:53:45;20.60;1.00
336;DHT22;156;48.738;9.228;2023-07-22T08:56:12;21.30;1.00
336;DHT22;156;48.738;9.228;2023-07-22T08:58:42;20.60;1.00
336;DHT22;156;48.738;9.228;2023-07-22T09:01:10;20.80;1.00
336;DHT22;156;48.738;9.228;2023-07-22T09:03:41;21.10;1.00
336;DHT22;156;48.738;9.228;2023-07-22T09:06:13;21.20;1.00
336;DHT22;156;48.738;9.228;2023-07-22T09:08:40;21.00;1.00
336;DHT22;156;48.738;9.228;2023-07-22T09:11:09;21.20;1.00
336;DHT22;156;48.738;9.228;2023-07-22T09:13:37;21.60;1.00
336;DHT22;156;48.738;9.228;2023-07-22T09:16:06;21.60;1.00
336;DHT22;156;48.738;9.228;2023-07-22T09:18:34;21.60;1.00
336;DHT22;156;48.738;9.228;2023-07-22T09:21:01;21.70;1.00
336;DHT22;156;48.738;9.228;2023-07-22T09:23:32;21.70;1.00
336;DHT22;156;48.738;9.228;2023-07-22T09:26:09;21.80;1.00
336;DHT22;156;48.738;9.228;2023-07-22T09:28:54;21.80;1.00
336;DHT22;156;48.738;9.228;2023-07-22T09:31:22;21.70;1.00
336;DHT22;156;48.738;9.228;2023-07-22T09:33:51;21.50;1.00
336;DHT22;156;48.738;9.228;2023-07-22T09:36:20;21.40;1.00
336;DHT22;156;48.738;9.228;2023-07-22T09:38:58;21.30;1.00
336;DHT22;156;48.738;9.228;2023-07-22T09:41:27;21.40;1.00
336;DHT22;156;48.738;9.228;2023-07-22T09:43:58;21.70;1.00
336;DHT22;156;48.738;9.228;2023-07-22T09:46:31;21.80;1.00
336;DHT22;156;48.738;9.228;2023-07-22T09:49:02;22.00;1.00
336;DHT22;156;48.738;9.228;2023-07-22T09:51:39;22.10;1.00
336;DHT22;156;48.738;9.228;2023-07-22T09:54:07;21.80;1.00
336;DHT22;156;48.738;9.228;2023-07-22T09:56:43;21.90;1.00
336;DHT22;156;48.738;9.228;2023-07-22T09:59:11;22.10;1.00
336;DHT22;156;48.738;9.228;2023-07-22T10:01:39;22.20;1.00
336;DHT22;156;48.738;9.228;2023-07-22T10:04:08;22.30;1.00
336;DHT22;156;48.738;9.228;2023-07-22T10:06:38;22.10;1.00
336;DHT22;156;48.738;9.228;2023-07-22T10:09:10;21.80;1.00
336;DHT22;156;48.738;9.228;2023-07-22T10:11:39;21.80;1.00
336;DHT22;156;48.738;9.228;2023-07-22T10:14:09;21.90;1.00
336;DHT22;156;48.738;9.228;2023-07-22T10:16:38;22.10;1.00
336;DHT22;156;48.738;9.228;2023-07-22T10:19:06;21.90;1.00
336;DHT22;156;48.738;9.228;2023-07-22T10:21:34;22.30;1.00
336;DHT22;156;48.738;9.228;2023-07-22T10:24:04;22.40;1.00
336;DHT22;156;48.738;9.228;2023-07-22T10:26:31;22.40;1.00
336;DHT22;156;48.738;9.228;2023-07-22T10:28:59;22.70;1.00
336;DHT22;156;48.738;9.228;2023-07-22T10:31:33;22.70;1.00
336;DHT22;156;48.738;9.228;2023-07-22T10:34:01;22.60;1.00
336;DHT22;156;48.738;9.228;2023-07-22T10:36:31;23.00;1.00
336;DHT22;156;48.738;9.228;2023-07-22T10:38:59;23.00;1.00
336;DHT22;156;48.738;9.228;2023-07-22T10:41:26;23.10;1.00
336;DHT22;156;48.738;9.228;2023-07-22T10:43:56;22.70;1.00
336;DHT22;156;48.738;9.228;2023-07-22T10:46:34;22.80;1.00
336;DHT22;156;48.738;9.228;2023-07-22T10:49:10;22.90;1.00
336;DHT22;156;48.738;9.228;2023-07-22T10:51:39;22.60;1.00
336;DHT22;156;48.738;9.228;2023-07-22T10:54:14;22.60;1.00
336;DHT22;156;48.738;9.228;2023-07-22T10:56:42;22.50;1.00
336;DHT22;156;48.738;9.228;2023-07-22T10:59:10;22.60;1.00
336;DHT22;156;48.738;9.228;2023-07-22T11:01:38;23.00;1.00
336;DHT22;156;48.738;9.228;2023-07-22T11:07:07;23.00;1.00
336;DHT22;156;48.738;9.228;2023-07-22T11:09:45;23.30;1.00
336;DHT22;156;48.738;9.228;2023-07-22T11:12:16;23.30;1.00
336;DHT22;156;48.738;9.228;2023-07-22T11:14:48;23.20;1.00
336;DHT22;156;48.738;9.228;2023-07-22T11:17:16;22.90;1.00
336;DHT22;156;48.738;9.228;2023-07-22T11:19:50;22.70;1.00
336;DHT22;156;48.738;9.228;2023-07-22T11:22:23;23.90;1.00
336;DHT22;156;48.738;9.228;2023-07-22T11:24:52;22.80;1.00
336;DHT22;156;48.738;9.228;2023-07-22T11:27:19;22.60;1.00
336;DHT22;156;48.738;9.228;2023-07-22T11:29:48;22.70;1.00
336;DHT22;156;48.738;9.228;2023-07-22T11:32:16;23.00;1.00
336;DHT22;156;48.738;9.228;2023-07-22T11:34:45;23.00;1.00
336;DHT22;156;48.738;9.228;2023-07-22T11:37:12;23.10;1.00
336;DHT22;156;48.738;9.228;2023-07-22T11:39:41;22.80;1.00
336;DHT22;156;48.738;9.228;2023-07-22T11:42:10;22.90;1.00
336;DHT22;156;48.738;9.228;2023-07-22T11:44:37;23.00;1.00
336;DHT22;156;48.738;9.228;2023-07-22T11:47:06;22.90;1.00
336;DHT22;156;48.738;9.228;2023-07-22T11:49:35;22.90;1.00
336;DHT22;156;48.738;9.228;2023-07-22T11:52:03;23.10;1.00
336;DHT22;156;48.738;9.228;2023-07-22T11:54:32;22.90;1.00
336;DHT22;156;48.738;9.228;2023-07-22T11:57:11;23.10;1.00
336;DHT22;156;48.738;9.228;2023-07-22T11:59:43;23.30;1.00
336;DHT22;156;48.738;9.228;2023-07-22T12:02:13;23.40;1.00
336;DHT22;156;48.738;9.228;2023-07-22T12:04:43;23.60;1.00
336;DHT22;156;48.738;9.228;2023-07-22T12:07:22;23.90;1.00
336;DHT22;156;48.738;9.228;2023-07-22T12:09:49;23.80;1.00
336;DHT22;156;48.738;9.228;2023-07-22T12:12:18;23.90;1.00
336;DHT22;156;48.738;9.228;2023-07-22T12:14:46;23.30;1.00
336;DHT22;156;48.738;9.228;2023-07-22T12:17:13;23.70;1.00
336;DHT22;156;48.738;9.228;2023-07-22T12:19:51;23.90;1.00
336;DHT22;156;48.738;9.228;2023-07-22T12:22:18;24.10;1.00
336;DHT22;156;48.738;9.228;2023-07-22T12:24:47;24.00;1.00
336;DHT22;156;48.738;9.228;2023-07-22T12:27:14;24.20;1.00
336;DHT22;156;48.738;9.228;2023-07-22T12:29:42;24.10;1.00
336;DHT22;156;48.738;9.228;2023-07-22T12:32:09;24.10;1.00
336;DHT22;156;48.738;9.228;2023-07-22T12:34:36;24.60;1.00
336;DHT22;156;48.738;9.228;2023-07-22T12:37:03;24.40;1.00
336;DHT22;156;48.738;9.228;2023-07-22T12:39:30;24.20;1.00
336;DHT22;156;48.738;9.228;2023-07-22T12:41:57;24.20;1.00
336;DHT22;156;48.738;9.228;2023-07-22T12:44:24;24.10;1.00
336;DHT22;156;48.738;9.228;2023-07-22T12:46:52;24.40;1.00
336;DHT22;156;48.738;9.228;2023-07-22T12:49:21;24.80;1.00
336;DHT22;156;48.738;9.228;2023-07-22T12:51:48;24.70;1.00
336;DHT22;156;48.738;9.228;2023-07-22T12:54:15;24.40;1.00
336;DHT22;156;48.738;9.228;2023-07-22T12:56:42;24.80;1.00
336;DHT22;156;48.738;9.228;2023-07-22T12:59:09;25.50;1.00
336;DHT22;156;48.738;9.228;2023-07-22T13:01:35;25.70;1.00
336;DHT22;156;48.738;9.228;2023-07-22T13:04:06;25.70;1.00
336;DHT22;156;48.738;9.228;2023-07-22T13:06:33;25.40;1.00
336;DHT22;156;48.738;9.228;2023-07-22T13:09:03;25.60;1.00
336;DHT22;156;48.738;9.228;2023-07-22T13:11:30;26.10;1.00
336;DHT22;156;48.738;9.228;2023-07-22T13:13:57;26.70;1.00
336;DHT22;156;48.738;9.228;2023-07-22T13:16:24;26.50;1.00
336;DHT22;156;48.738;9.228;2023-07-22T13:18:51;27.00;1.00
336;DHT22;156;48.738;9.228;2023-07-22T13:21:19;27.30;1.00
336;DHT22;156;48.738;9.228;2023-07-22T13:23:49;26.80;1.00
336;DHT22;156;48.738;9.228;2023-07-22T13:26:16;26.70;1.00
336;DHT22;156;48.738;9.228;2023-07-22T13:28:43;27.00;1.00
336;DHT22;156;48.738;9.228;2023-07-22T13:31:12;26.70;1.00
336;DHT22;156;48.738;9.228;2023-07-22T13:33:40;26.30;1.00
336;DHT22;156;48.738;9.228;2023-07-22T13:36:07;25.10;1.00
336;DHT22;156;48.738;9.228;2023-07-22T13:38:41;24.90;1.00
336;DHT22;156;48.738;9.228;2023-07-22T13:41:08;25.70;1.00
336;DHT22;156;48.738;9.228;2023-07-22T13:43:35;26.40;1.00
336;DHT22;156;48.738;9.228;2023-07-22T13:46:02;27.40;1.00
336;DHT22;156;48.738;9.228;2023-07-22T13:48:34;28.10;1.00
336;DHT22;156;48.738;9.228;2023-07-22T13:51:03;27.90;1.00
336;DHT22;156;48.738;9.228;2023-07-22T13:53:35;27.20;1.00
336;DHT22;156;48.738;9.228;2023-07-22T13:56:04;26.30;1.00
336;DHT22;156;48.738;9.228;2023-07-22T13:58:32;25.40;1.00
336;DHT22;156;48.738;9.228;2023-07-22T14:00:59;25.70;1.00
336;DHT22;156;48.738;9.228;2023-07-22T14:03:26;26.30;1.00
336;DHT22;156;48.738;9.228;2023-07-22T14:05:53;26.50;1.00
336;DHT22;156;48.738;9.228;2023-07-22T14:08:21;26.60;1.00
336;DHT22;156;48.738;9.228;2023-07-22T14:10:49;26.40;1.00
336;DHT22;156;48.738;9.228;2023-07-22T14:13:18;26.20;1.00
336;DHT22;156;48.738;9.228;2023-07-22T14:15:45;26.10;1.00
336;DHT22;156;48.738;9.228;2023-07-22T14:18:12;25.90;1.00
336;DHT22;156;48.738;9.228;2023-07-22T14:20:42;25.50;1.00
336;DHT22;156;48.738;9.228;2023-07-22T14:23:10;24.90;1.00
336;DHT22;156;48.738;9.228;2023-07-22T14:25:41;25.00;1.00
336;DHT22;156;48.738;9.228;2023-07-22T14:28:08;25.50;1.00
336;DHT22;156;48.738;9.228;2023-07-22T14:30:43;25.90;1.00
336;DHT22;156;48.738;9.228;2023-07-22T14:33:10;26.20;1.00
336;DHT22;156;48.738;9.228;2023-07-22T14:35:37;26.00;1.00
336;DHT22;156;48.738;9.228;2023-07-22T14:38:04;25.80;1.00
336;DHT22;156;48.738;9.228;2023-07-22T14:40:33;25.60;1.00
336;DHT22;156;48.738;9.228;2023-07-22T14:43:00;25.60;1.00
336;DHT22;156;48.738;9.228;2023-07-22T14:45:27;25.80;1.00
336;DHT22;156;48.738;9.228;2023-07-22T14:47:56;26.00;1.00
336;DHT22;156;48.738;9.228;2023-07-22T14:50:24;26.50;1.00
336;DHT22;156;48.738;9.228;2023-07-22T14:52:52;26.60;1.00
336;DHT22;156;48.738;9.228;2023-07-22T14:55:19;26.70;1.00
336;DHT22;156;48.738;9.228;2023-07-22T14:57:46;26.90;1.00
336;DHT22;156;48.738;9.228;2023-07-22T15:00:13;26.90;1.00
336;DHT22;156;48.738;9.228;2023-07-22T15:02:40;27.20;1.00
336;DHT22;156;48.738;9.228;2023-07-22T15:05:08;26.60;1.00
336;DHT22;156;48.738;9.228;2023-07-22T15:07:36;26.40;1.00
336;DHT22;156;48.738;9.228;2023-07-22T15:10:03;25.50;1.00
336;DHT22;156;48.738;9.228;2023-07-22T15:12:30;25.40;1.00
336;DHT22;156;48.738;9.228;2023-07-22T15:14:56;25.10;1.00
336;DHT22;156;48.738;9.228;2023-07-22T15:17:23;25.00;1.00
336;DHT22;156;48.738;9.228;2023-07-22T15:19:51;25.00;1.00
336;DHT22;156;48.738;9.228;2023-07-22T15:22:22;25.00;1.00
336;DHT22;156;48.738;9.228;2023-07-22T15:24:49;24.90;1.00
336;DHT22;156;48.738;9.228;2023-07-22T15:27:16;25.00;1.00
336;DHT22;156;48.738;9.228;2023-07-22T15:29:44;24.90;1.00
336;DHT22;156;48.738;9.228;2023-07-22T15:32:11;25.00;1.00
336;DHT22;156;48.738;9.228;2023-07-22T15:34:38;25.00;1.00
336;DHT22;156;48.738;9.228;2023-07-22T15:37:06;25.10;1.00
336;DHT22;156;48.738;9.228;2023-07-22T15:39:34;25.20;1.00
336;DHT22;156;48.738;9.228;2023-07-22T15:42:01;25.00;1.00
336;DHT22;156;48.738;9.228;2023-07-22T15:44:28;24.80;1.00
336;DHT22;156;48.738;9.228;2023-07-22T15:46:55;24.70;1.00
336;DHT22;156;48.738;9.228;2023-07-22T15:49:23;24.80;1.00
336;DHT22;156;48.738;9.228;2023-07-22T15:51:53;24.70;1.00
336;DHT22;156;48.738;9.228;2023-07-22T15:54:20;24.80;1.00
336;DHT22;156;48.738;9.228;2023-07-22T15:56:50;24.90;1.00
336;DHT22;156;48.738;9.228;2023-07-22T15:59:17;25.00;1.00
336;DHT22;156;48.738;9.228;2023-07-22T16:01:44;24.80;1.00
336;DHT22;156;48.738;9.228;2023-07-22T16:04:11;24.60;1.00
336;DHT22;156;48.738;9.228;2023-07-22T16:06:38;24.80;1.00
336;DHT22;156;48.738;9.228;2023-07-22T16:09:05;23.80;1.00
336;DHT22;156;48.738;9.228;2023-07-22T16:11:34;24.50;1.00
336;DHT22;156;48.738;9.228;2023-07-22T16:14:02;24.70;1.00
336;DHT22;156;48.738;9.228;2023-07-22T16:16:31;24.90;1.00
336;DHT22;156;48.738;9.228;2023-07-22T16:18:58;24.90;1.00
336;DHT22;156;48.738;9.228;2023-07-22T16:21:25;25.00;1.00
336;DHT22;156;48.738;9.228;2023-07-22T16:23:52;25.10;1.00
336;DHT22;156;48.738;9.228;2023-07-22T16:26:19;24.90;1.00
336;DHT22;156;48.738;9.228;2023-07-22T16:28:46;24.80;1.00
336;DHT22;156;48.738;9.228;2023-07-22T16:31:15;24.90;1.00
336;DHT22;156;48.738;9.228;2023-07-22T16:33:42;25.20;1.00
336;DHT22;156;48.738;9.228;2023-07-22T16:36:10;25.10;1.00
336;DHT22;156;48.738;9.228;2023-07-22T16:38:37;25.00;1.00
336;DHT22;156;48.738;9.228;2023-07-22T16:41:03;25.00;1.00
336;DHT22;156;48.738;9.228;2023-07-22T16:43:33;24.70;1.00
336;DHT22;156;48.738;9.228;2023-07-22T16:46:00;24.30;1.00
336;DHT22;156;48.738;9.228;2023-07-22T16:48:28;24.40;1.00
336;DHT22;156;48.738;9.228;2023-07-22T16:50:55;24.60;1.00
336;DHT22;156;48.738;9.228;2023-07-22T16:53:25;24.90;1.00
336;DHT22;156;48.738;9.228;2023-07-22T16:55:54;25.00;1.00